Terminal Aerodrome Forecast
Issued by NWS

Home | Current Version | Previous Version | Text Only | Print | Product List | Glossary On
Versions: 1 2 3 4 5 6 7 8 9 10 11 12 13 14 15 16 17 18 19 20 21 22 23 24 25 26 27 28 29 30
150
FTUS44 KFWD 191509 AAD
TAFDAL
TAF AMD
KDAL 191509Z 1915/2012 13010KT 2SM BR OVC004
      TEMPO 1915/1917 1SM BR OVC003
     FM191800 15011KT P6SM OVC012
     FM191900 14011KT P6SM VCSH BKN011
     FM192100 15011KT P6SM VCSH BKN025
     FM192300 14011KT P6SM BKN030 BKN050
     FM200600 17010KT 4SM TSRA BR BKN010 OVC015CB
     FM201000 23010KT 4SM SHRA BR OVC015=

USA.gov is the U.S. government's official web portal to all federal, state and local government web resources and services.